sensor_id;sensor_type;location;lat;lon;timestamp;P1;durP1;ratioP1;P2;durP2;ratioP2
11283;SDS011;5698;47.332;11.180;2023-02-13T00:00:28;5.50;;;4.90;;
11283;SDS011;5698;47.332;11.180;2023-02-13T00:02:55;7.60;;;5.47;;
11283;SDS011;5698;47.332;11.180;2023-02-13T00:05:22;6.47;;;4.87;;
11283;SDS011;5698;47.332;11.180;2023-02-13T00:07:50;5.43;;;4.83;;
11283;SDS011;5698;47.332;11.180;2023-02-13T00:10:17;6.63;;;5.10;;
11283;SDS011;5698;47.332;11.180;2023-02-13T00:12:44;6.67;;;4.70;;
11283;SDS011;5698;47.332;11.180;2023-02-13T00:15:11;5.50;;;4.67;;
11283;SDS011;5698;47.332;11.180;2023-02-13T00:17:38;4.93;;;4.30;;
11283;SDS011;5698;47.332;11.180;2023-02-13T00:20:06;5.07;;;4.57;;
11283;SDS011;5698;47.332;11.180;2023-02-13T00:22:36;6.13;;;4.70;;
11283;SDS011;5698;47.332;11.180;2023-02-13T00:25:05;5.93;;;4.50;;
11283;SDS011;5698;47.332;11.180;2023-02-13T00:27:33;4.57;;;3.97;;
11283;SDS011;5698;47.332;11.180;2023-02-13T00:30:00;4.73;;;4.00;;
11283;SDS011;5698;47.332;11.180;2023-02-13T00:32:29;4.33;;;3.90;;
11283;SDS011;5698;47.332;11.180;2023-02-13T00:34:56;5.73;;;4.67;;
11283;SDS011;5698;47.332;11.180;2023-02-13T00:37:23;5.33;;;4.60;;
11283;SDS011;5698;47.332;11.180;2023-02-13T00:39:51;6.00;;;4.50;;
11283;SDS011;5698;47.332;11.180;2023-02-13T00:42:19;4.83;;;4.30;;
11283;SDS011;5698;47.332;11.180;2023-02-13T00:44:48;4.63;;;4.13;;
11283;SDS011;5698;47.332;11.180;2023-02-13T00:47:15;5.43;;;4.63;;
11283;SDS011;5698;47.332;11.180;2023-02-13T00:49:42;4.60;;;3.83;;
11283;SDS011;5698;47.332;11.180;2023-02-13T00:52:09;4.17;;;3.77;;
11283;SDS011;5698;47.332;11.180;2023-02-13T00:54:36;4.33;;;3.80;;
11283;SDS011;5698;47.332;11.180;2023-02-13T00:57:03;4.40;;;3.70;;
11283;SDS011;5698;47.332;11.180;2023-02-13T00:59:31;5.27;;;4.17;;
11283;SDS011;5698;47.332;11.180;2023-02-13T01:01:58;4.80;;;4.17;;
11283;SDS011;5698;47.332;11.180;2023-02-13T01:04:25;4.00;;;3.53;;
11283;SDS011;5698;47.332;11.180;2023-02-13T01:06:52;4.80;;;3.83;;
11283;SDS011;5698;47.332;11.180;2023-02-13T01:09:19;5.87;;;4.03;;
11283;SDS011;5698;47.332;11.180;2023-02-13T01:11:46;3.90;;;3.07;;
11283;SDS011;5698;47.332;11.180;2023-02-13T01:14:13;6.00;;;3.67;;
11283;SDS011;5698;47.332;11.180;2023-02-13T01:16:42;3.70;;;3.40;;
11283;SDS011;5698;47.332;11.180;2023-02-13T01:19:09;3.77;;;3.43;;
11283;SDS011;5698;47.332;11.180;2023-02-13T01:21:36;3.40;;;3.10;;
11283;SDS011;5698;47.332;11.180;2023-02-13T01:24:03;4.17;;;3.60;;
11283;SDS011;5698;47.332;11.180;2023-02-13T01:26:31;3.53;;;3.13;;
11283;SDS011;5698;47.332;11.180;2023-02-13T01:28:58;3.70;;;3.20;;
11283;SDS011;5698;47.332;11.180;2023-02-13T01:31:26;4.40;;;3.27;;
11283;SDS011;5698;47.332;11.180;2023-02-13T01:33:56;3.13;;;2.73;;
11283;SDS011;5698;47.332;11.180;2023-02-13T01:36:23;4.20;;;3.00;;
11283;SDS011;5698;47.332;11.180;2023-02-13T01:38:51;3.43;;;3.10;;
11283;SDS011;5698;47.332;11.180;2023-02-13T01:41:19;3.83;;;2.97;;
11283;SDS011;5698;47.332;11.180;2023-02-13T01:43:49;4.77;;;2.90;;
11283;SDS011;5698;47.332;11.180;2023-02-13T01:46:21;3.27;;;2.90;;
11283;SDS011;5698;47.332;11.180;2023-02-13T01:48:53;2.80;;;2.43;;
11283;SDS011;5698;47.332;11.180;2023-02-13T01:51:24;2.97;;;2.43;;
11283;SDS011;5698;47.332;11.180;2023-02-13T01:53:57;4.77;;;2.73;;
11283;SDS011;5698;47.332;11.180;2023-02-13T01:56:27;5.90;;;3.17;;
11283;SDS011;5698;47.332;11.180;2023-02-13T01:58:58;3.00;;;2.70;;
11283;SDS011;5698;47.332;11.180;2023-02-13T02:01:27;2.80;;;2.60;;
11283;SDS011;5698;47.332;11.180;2023-02-13T02:03:59;3.43;;;2.93;;
11283;SDS011;5698;47.332;11.180;2023-02-13T02:06:33;4.60;;;2.60;;
11283;SDS011;5698;47.332;11.180;2023-02-13T02:09:05;2.67;;;2.40;;
11283;SDS011;5698;47.332;11.180;2023-02-13T02:11:39;3.20;;;2.80;;
11283;SDS011;5698;47.332;11.180;2023-02-13T02:14:12;2.40;;;2.20;;
11283;SDS011;5698;47.332;11.180;2023-02-13T02:16:39;3.40;;;3.00;;
11283;SDS011;5698;47.332;11.180;2023-02-13T02:19:09;5.73;;;2.73;;
11283;SDS011;5698;47.332;11.180;2023-02-13T02:25:17;2.93;;;2.40;;
11283;SDS011;5698;47.332;11.180;2023-02-13T02:31:18;2.67;;;2.13;;
11283;SDS011;5698;47.332;11.180;2023-02-13T02:34:12;4.40;;;2.63;;
11283;SDS011;5698;47.332;11.180;2023-02-13T02:36:53;3.20;;;2.10;;
11283;SDS011;5698;47.332;11.180;2023-02-13T02:39:34;2.37;;;2.17;;
11283;SDS011;5698;47.332;11.180;2023-02-13T02:42:12;2.33;;;2.13;;
11283;SDS011;5698;47.332;11.180;2023-02-13T02:44:48;2.63;;;2.00;;
11283;SDS011;5698;47.332;11.180;2023-02-13T02:47:23;3.30;;;2.33;;
11283;SDS011;5698;47.332;11.180;2023-02-13T02:50:13;2.33;;;2.10;;
11283;SDS011;5698;47.332;11.180;2023-02-13T02:52:57;2.10;;;1.80;;
11283;SDS011;5698;47.332;11.180;2023-02-13T02:55:45;2.10;;;1.90;;
11283;SDS011;5698;47.332;11.180;2023-02-13T02:58:17;3.80;;;2.10;;
11283;SDS011;5698;47.332;11.180;2023-02-13T03:01:04;2.23;;;2.03;;
11283;SDS011;5698;47.332;11.180;2023-02-13T03:03:51;2.00;;;1.73;;
11283;SDS011;5698;47.332;11.180;2023-02-13T03:06:42;1.57;;;1.47;;
11283;SDS011;5698;47.332;11.180;2023-02-13T03:09:14;2.10;;;1.80;;
11283;SDS011;5698;47.332;11.180;2023-02-13T03:12:03;2.03;;;1.77;;
11283;SDS011;5698;47.332;11.180;2023-02-13T03:14:48;1.80;;;1.70;;
11283;SDS011;5698;47.332;11.180;2023-02-13T03:17:16;1.77;;;1.67;;
11283;SDS011;5698;47.332;11.180;2023-02-13T03:20:06;3.03;;;1.80;;
11283;SDS011;5698;47.332;11.180;2023-02-13T03:23:01;2.93;;;1.90;;
11283;SDS011;5698;47.332;11.180;2023-02-13T03:25:40;2.23;;;1.70;;
11283;SDS011;5698;47.332;11.180;2023-02-13T03:28:24;1.60;;;1.40;;
11283;SDS011;5698;47.332;11.180;2023-02-13T03:31:16;1.60;;;1.50;;
11283;SDS011;5698;47.332;11.180;2023-02-13T03:33:53;2.50;;;1.30;;
11283;SDS011;5698;47.332;11.180;2023-02-13T03:36:30;1.80;;;1.50;;
11283;SDS011;5698;47.332;11.180;2023-02-13T03:39:28;2.63;;;1.60;;
11283;SDS011;5698;47.332;11.180;2023-02-13T03:42:05;2.40;;;1.37;;
11283;SDS011;5698;47.332;11.180;2023-02-13T03:44:38;1.63;;;1.33;;
11283;SDS011;5698;47.332;11.180;2023-02-13T03:47:07;1.60;;;1.50;;
11283;SDS011;5698;47.332;11.180;2023-02-13T03:49:37;1.47;;;1.27;;
11283;SDS011;5698;47.332;11.180;2023-02-13T03:52:38;1.90;;;1.70;;
11283;SDS011;5698;47.332;11.180;2023-02-13T03:55:12;1.33;;;1.20;;
11283;SDS011;5698;47.332;11.180;2023-02-13T03:57:59;2.23;;;1.67;;
11283;SDS011;5698;47.332;11.180;2023-02-13T04:00:51;1.63;;;1.53;;
11283;SDS011;5698;47.332;11.180;2023-02-13T04:03:21;2.20;;;1.90;;
11283;SDS011;5698;47.332;11.180;2023-02-13T04:05:55;1.60;;;1.40;;
11283;SDS011;5698;47.332;11.180;2023-02-13T04:08:28;1.97;;;1.47;;
11283;SDS011;5698;47.332;11.180;2023-02-13T04:10:58;1.30;;;1.20;;
11283;SDS011;5698;47.332;11.180;2023-02-13T04:13:32;2.47;;;1.60;;
11283;SDS011;5698;47.332;11.180;2023-02-13T04:16:02;1.77;;;1.57;;
11283;SDS011;5698;47.332;11.180;2023-02-13T04:18:35;2.23;;;1.50;;
11283;SDS011;5698;47.332;11.180;2023-02-13T04:21:04;2.33;;;1.43;;
11283;SDS011;5698;47.332;11.180;2023-02-13T04:23:32;3.07;;;1.50;;
11283;SDS011;5698;47.332;11.180;2023-02-13T04:26:02;2.27;;;1.40;;
11283;SDS011;5698;47.332;11.180;2023-02-13T04:28:34;2.60;;;1.50;;
11283;SDS011;5698;47.332;11.180;2023-02-13T04:31:01;1.67;;;1.43;;
11283;SDS011;5698;47.332;11.180;2023-02-13T04:33:28;1.83;;;1.43;;
11283;SDS011;5698;47.332;11.180;2023-02-13T04:35:55;1.30;;;1.20;;
11283;SDS011;5698;47.332;11.180;2023-02-13T04:38:22;1.87;;;1.67;;
11283;SDS011;5698;47.332;11.180;2023-02-13T04:40:49;1.40;;;1.27;;
11283;SDS011;5698;47.332;11.180;2023-02-13T04:43:17;2.07;;;1.33;;
11283;SDS011;5698;47.332;11.180;2023-02-13T04:45:46;1.17;;;1.07;;
11283;SDS011;5698;47.332;11.180;2023-02-13T04:48:13;2.53;;;1.40;;
11283;SDS011;5698;47.332;11.180;2023-02-13T04:50:40;1.60;;;1.50;;
11283;SDS011;5698;47.332;11.180;2023-02-13T04:53:08;2.30;;;1.40;;
11283;SDS011;5698;47.332;11.180;2023-02-13T04:55:35;1.37;;;1.20;;
11283;SDS011;5698;47.332;11.180;2023-02-13T04:58:02;1.43;;;1.20;;
11283;SDS011;5698;47.332;11.180;2023-02-13T05:00:30;1.37;;;1.27;;
11283;SDS011;5698;47.332;11.180;2023-02-13T05:03:03;1.57;;;1.47;;
11283;SDS011;5698;47.332;11.180;2023-02-13T05:05:30;1.23;;;1.13;;
11283;SDS011;5698;47.332;11.180;2023-02-13T05:07:58;2.37;;;1.40;;
11283;SDS011;5698;47.332;11.180;2023-02-13T05:10:25;1.60;;;1.30;;
11283;SDS011;5698;47.332;11.180;2023-02-13T05:12:52;1.43;;;1.10;;
11283;SDS011;5698;47.332;11.180;2023-02-13T05:15:19;1.20;;;1.10;;
11283;SDS011;5698;47.332;11.180;2023-02-13T05:17:49;1.30;;;1.20;;
11283;SDS011;5698;47.332;11.180;2023-02-13T05:20:16;1.23;;;1.13;;
11283;SDS011;5698;47.332;11.180;2023-02-13T05:22:44;1.47;;;1.27;;
11283;SDS011;5698;47.332;11.180;2023-02-13T05:25:29;1.13;;;1.03;;
11283;SDS011;5698;47.332;11.180;2023-02-13T05:27:56;1.50;;;1.37;;
11283;SDS011;5698;47.332;11.180;2023-02-13T05:30:23;1.30;;;1.00;;
11283;SDS011;5698;47.332;11.180;2023-02-13T05:32:50;1.30;;;1.00;;
11283;SDS011;5698;47.332;11.180;2023-02-13T05:35:19;1.10;;;1.00;;
11283;SDS011;5698;47.332;11.180;2023-02-13T05:37:46;1.20;;;0.90;;
11283;SDS011;5698;47.332;11.180;2023-02-13T05:40:13;1.30;;;1.20;;
11283;SDS011;5698;47.332;11.180;2023-02-13T05:42:41;1.00;;;0.90;;
11283;SDS011;5698;47.332;11.180;2023-02-13T05:45:08;1.17;;;1.00;;
11283;SDS011;5698;47.332;11.180;2023-02-13T05:47:36;1.10;;;0.90;;
11283;SDS011;5698;47.332;11.180;2023-02-13T05:50:05;1.93;;;1.20;;
11283;SDS011;5698;47.332;11.180;2023-02-13T05:52:33;0.97;;;0.87;;
11283;SDS011;5698;47.332;11.180;2023-02-13T05:55:00;1.70;;;0.80;;
11283;SDS011;5698;47.332;11.180;2023-02-13T05:57:27;1.13;;;0.90;;
11283;SDS011;5698;47.332;11.180;2023-02-13T05:59:54;1.37;;;1.00;;
11283;SDS011;5698;47.332;11.180;2023-02-13T06:02:21;1.00;;;0.90;;
11283;SDS011;5698;47.332;11.180;2023-02-13T06:04:48;0.90;;;0.87;;
11283;SDS011;5698;47.332;11.180;2023-02-13T06:07:16;1.23;;;0.90;;
11283;SDS011;5698;47.332;11.180;2023-02-13T06:09:43;1.27;;;0.90;;
11283;SDS011;5698;47.332;11.180;2023-02-13T06:12:10;0.87;;;0.80;;
11283;SDS011;5698;47.332;11.180;2023-02-13T06:14:37;1.50;;;0.90;;
11283;SDS011;5698;47.332;11.180;2023-02-13T06:17:04;1.00;;;0.90;;
11283;SDS011;5698;47.332;11.180;2023-02-13T06:19:31;0.97;;;0.93;;
11283;SDS011;5698;47.332;11.180;2023-02-13T06:21:58;2.53;;;0.90;;
11283;SDS011;5698;47.332;11.180;2023-02-13T06:24:27;1.00;;;0.90;;
11283;SDS011;5698;47.332;11.180;2023-02-13T06:26:54;0.80;;;0.80;;
11283;SDS011;5698;47.332;11.180;2023-02-13T06:29:21;1.10;;;1.00;;
11283;SDS011;5698;47.332;11.180;2023-02-13T06:31:48;1.00;;;0.90;;
11283;SDS011;5698;47.332;11.180;2023-02-13T06:34:15;1.00;;;0.90;;
11283;SDS011;5698;47.332;11.180;2023-02-13T06:36:42;1.40;;;0.80;;
11283;SDS011;5698;47.332;11.180;2023-02-13T06:39:09;1.27;;;1.10;;
11283;SDS011;5698;47.332;11.180;2023-02-13T06:41:38;1.07;;;0.90;;
11283;SDS011;5698;47.332;11.180;2023-02-13T06:44:05;1.90;;;0.80;;
11283;SDS011;5698;47.332;11.180;2023-02-13T06:46:33;2.07;;;1.03;;
11283;SDS011;5698;47.332;11.180;2023-02-13T06:49:00;0.80;;;0.80;;
11283;SDS011;5698;47.332;11.180;2023-02-13T06:51:27;0.70;;;0.70;;
11283;SDS011;5698;47.332;11.180;2023-02-13T06:53:54;1.80;;;0.73;;
11283;SDS011;5698;47.332;11.180;2023-02-13T06:56:21;1.13;;;0.90;;
11283;SDS011;5698;47.332;11.180;2023-02-13T06:58:51;0.67;;;0.67;;
11283;SDS011;5698;47.332;11.180;2023-02-13T07:01:18;0.77;;;0.70;;
11283;SDS011;5698;47.332;11.180;2023-02-13T07:03:45;0.80;;;0.80;;
11283;SDS011;5698;47.332;11.180;2023-02-13T07:06:15;1.13;;;0.80;;
11283;SDS011;5698;47.332;11.180;2023-02-13T07:08:43;1.63;;;0.93;;
11283;SDS011;5698;47.332;11.180;2023-02-13T07:11:15;1.00;;;0.67;;
11283;SDS011;5698;47.332;11.180;2023-02-13T07:13:43;1.10;;;0.80;;
11283;SDS011;5698;47.332;11.180;2023-02-13T07:16:11;1.13;;;0.70;;
11283;SDS011;5698;47.332;11.180;2023-02-13T07:18:38;0.97;;;0.60;;
11283;SDS011;5698;47.332;11.180;2023-02-13T07:21:05;0.70;;;0.70;;
11283;SDS011;5698;47.332;11.180;2023-02-13T07:23:32;1.23;;;0.70;;
11283;SDS011;5698;47.332;11.180;2023-02-13T07:26:00;0.60;;;0.60;;
11283;SDS011;5698;47.332;11.180;2023-02-13T07:28:27;0.87;;;0.87;;
11283;SDS011;5698;47.332;11.180;2023-02-13T07:30:55;3.57;;;1.50;;
11283;SDS011;5698;47.332;11.180;2023-02-13T07:33:24;4.23;;;1.20;;
11283;SDS011;5698;47.332;11.180;2023-02-13T07:35:51;5.17;;;1.33;;
11283;SDS011;5698;47.332;11.180;2023-02-13T07:38:18;2.80;;;1.50;;
11283;SDS011;5698;47.332;11.180;2023-02-13T07:40:45;6.83;;;2.10;;
11283;SDS011;5698;47.332;11.180;2023-02-13T07:43:12;2.83;;;1.40;;
11283;SDS011;5698;47.332;11.180;2023-02-13T07:45:39;2.43;;;1.27;;
11283;SDS011;5698;47.332;11.180;2023-02-13T07:48:06;2.23;;;1.43;;
11283;SDS011;5698;47.332;11.180;2023-02-13T07:50:35;4.30;;;1.03;;
11283;SDS011;5698;47.332;11.180;2023-02-13T07:53:02;0.60;;;0.50;;
11283;SDS011;5698;47.332;11.180;2023-02-13T07:55:29;1.00;;;0.77;;
11283;SDS011;5698;47.332;11.180;2023-02-13T07:57:57;0.60;;;0.50;;
11283;SDS011;5698;47.332;11.180;2023-02-13T08:00:25;1.03;;;0.93;;
11283;SDS011;5698;47.332;11.180;2023-02-13T08:02:52;1.93;;;0.87;;
11283;SDS011;5698;47.332;11.180;2023-02-13T08:05:19;0.60;;;0.60;;
11283;SDS011;5698;47.332;11.180;2023-02-13T08:07:48;0.67;;;0.67;;
11283;SDS011;5698;47.332;11.180;2023-02-13T08:10:15;1.10;;;0.60;;
11283;SDS011;5698;47.332;11.180;2023-02-13T08:12:59;0.77;;;0.77;;
11283;SDS011;5698;47.332;11.180;2023-02-13T08:15:27;0.77;;;0.77;;
11283;SDS011;5698;47.332;11.180;2023-02-13T08:17:54;1.73;;;0.80;;
11283;SDS011;5698;47.332;11.180;2023-02-13T08:20:21;1.17;;;0.80;;
11283;SDS011;5698;47.332;11.180;2023-02-13T08:22:50;0.60;;;0.60;;
11283;SDS011;5698;47.332;11.180;2023-02-13T08:25:17;0.67;;;0.67;;
11283;SDS011;5698;47.332;11.180;2023-02-13T08:27:44;0.70;;;0.70;;
11283;SDS011;5698;47.332;11.180;2023-02-13T08:30:12;0.70;;;0.70;;
11283;SDS011;5698;47.332;11.180;2023-02-13T08:32:40;0.80;;;0.60;;
11283;SDS011;5698;47.332;11.180;2023-02-13T08:35:07;0.80;;;0.50;;
11283;SDS011;5698;47.332;11.180;2023-02-13T08:37:34;0.97;;;0.70;;
11283;SDS011;5698;47.332;11.180;2023-02-13T08:40:02;0.60;;;0.60;;
11283;SDS011;5698;47.332;11.180;2023-02-13T08:42:29;0.50;;;0.50;;
11283;SDS011;5698;47.332;11.180;2023-02-13T08:44:56;0.67;;;0.50;;
11283;SDS011;5698;47.332;11.180;2023-02-13T08:47:24;0.60;;;0.60;;
11283;SDS011;5698;47.332;11.180;2023-02-13T08:49:51;0.87;;;0.50;;
11283;SDS011;5698;47.332;11.180;2023-02-13T08:52:18;1.47;;;0.50;;
11283;SDS011;5698;47.332;11.180;2023-02-13T08:54:44;2.27;;;0.63;;
11283;SDS011;5698;47.332;11.180;2023-02-13T08:57:13;0.50;;;0.50;;
11283;SDS011;5698;47.332;11.180;2023-02-13T08:59:40;0.83;;;0.60;;
11283;SDS011;5698;47.332;11.180;2023-02-13T09:02:08;0.80;;;0.80;;
11283;SDS011;5698;47.332;11.180;2023-02-13T09:04:36;1.63;;;0.40;;
11283;SDS011;5698;47.332;11.180;2023-02-13T09:07:03;0.40;;;0.40;;
11283;SDS011;5698;47.332;11.180;2023-02-13T09:09:30;0.40;;;0.40;;
11283;SDS011;5698;47.332;11.180;2023-02-13T09:11:57;0.50;;;0.50;;
11283;SDS011;5698;47.332;11.180;2023-02-13T09:14:26;0.60;;;0.60;;
11283;SDS011;5698;47.332;11.180;2023-02-13T09:16:53;0.83;;;0.50;;
11283;SDS011;5698;47.332;11.180;2023-02-13T09:19:20;0.60;;;0.50;;
11283;SDS011;5698;47.332;11.180;2023-02-13T09:21:47;0.70;;;0.70;;
11283;SDS011;5698;47.332;11.180;2023-02-13T09:24:14;0.50;;;0.50;;
11283;SDS011;5698;47.332;11.180;2023-02-13T09:26:41;0.60;;;0.50;;
11283;SDS011;5698;47.332;11.180;2023-02-13T09:29:08;1.27;;;0.50;;
11283;SDS011;5698;47.332;11.180;2023-02-13T09:31:36;0.77;;;0.60;;
11283;SDS011;5698;47.332;11.180;2023-02-13T09:34:03;0.40;;;0.40;;
11283;SDS011;5698;47.332;11.180;2023-02-13T09:36:30;1.73;;;0.50;;
11283;SDS011;5698;47.332;11.180;2023-02-13T09:38:58;0.57;;;0.57;;
11283;SDS011;5698;47.332;11.180;2023-02-13T09:41:25;0.50;;;0.50;;
11283;SDS011;5698;47.332;11.180;2023-02-13T09:43:56;1.27;;;0.70;;
11283;SDS011;5698;47.332;11.180;2023-02-13T09:46:27;0.40;;;0.40;;
11283;SDS011;5698;47.332;11.180;2023-02-13T09:49:00;0.60;;;0.57;;
11283;SDS011;5698;47.332;11.180;2023-02-13T09:51:31;1.17;;;0.50;;
11283;SDS011;5698;47.332;11.180;2023-02-13T09:53:59;0.73;;;0.60;;
11283;SDS011;5698;47.332;11.180;2023-02-13T09:56:39;1.33;;;0.60;;
11283;SDS011;5698;47.332;11.180;2023-02-13T09:59:17;1.07;;;0.50;;
11283;SDS011;5698;47.332;11.180;2023-02-13T10:01:56;0.40;;;0.40;;
11283;SDS011;5698;47.332;11.180;2023-02-13T10:04:30;1.07;;;0.53;;
11283;SDS011;5698;47.332;11.180;2023-02-13T10:07:10;0.50;;;0.50;;
11283;SDS011;5698;47.332;11.180;2023-02-13T10:09:47;0.70;;;0.60;;
11283;SDS011;5698;47.332;11.180;2023-02-13T10:12:29;0.60;;;0.60;;
11283;SDS011;5698;47.332;11.180;2023-02-13T10:15:14;0.57;;;0.50;;
11283;SDS011;5698;47.332;11.180;2023-02-13T10:17:46;1.00;;;0.60;;
11283;SDS011;5698;47.332;11.180;2023-02-13T10:20:24;3.47;;;0.50;;
11283;SDS011;5698;47.332;11.180;2023-02-13T10:22:57;1.23;;;0.60;;
11283;SDS011;5698;47.332;11.180;2023-02-13T10:25:29;0.60;;;0.60;;
11283;SDS011;5698;47.332;11.180;2023-02-13T10:28:03;1.10;;;0.50;;
11283;SDS011;5698;47.332;11.180;2023-02-13T10:30:47;0.63;;;0.60;;
11283;SDS011;5698;47.332;11.180;2023-02-13T10:33:19;1.67;;;0.70;;
11283;SDS011;5698;47.332;11.180;2023-02-13T10:35:55;0.57;;;0.50;;
11283;SDS011;5698;47.332;11.180;2023-02-13T10:38:27;1.93;;;0.60;;
11283;SDS011;5698;47.332;11.180;2023-02-13T10:41:14;0.60;;;0.50;;
11283;SDS011;5698;47.332;11.180;2023-02-13T10:43:51;0.67;;;0.67;;
11283;SDS011;5698;47.332;11.180;2023-02-13T10:46:31;0.60;;;0.60;;
11283;SDS011;5698;47.332;11.180;2023-02-13T10:49:11;1.23;;;0.70;;
11283;SDS011;5698;47.332;11.180;2023-02-13T10:51:54;0.67;;;0.53;;
11283;SDS011;5698;47.332;11.180;2023-02-13T10:54:36;0.50;;;0.50;;
11283;SDS011;5698;47.332;11.180;2023-02-13T10:57:20;2.00;;;0.60;;
11283;SDS011;5698;47.332;11.180;2023-02-13T10:59:54;0.80;;;0.67;;
11283;SDS011;5698;47.332;11.180;2023-02-13T11:02:31;0.70;;;0.70;;
11283;SDS011;5698;47.332;11.180;2023-02-13T11:05:01;1.53;;;0.70;;
11283;SDS011;5698;47.332;11.180;2023-02-13T11:07:40;1.20;;;0.80;;
11283;SDS011;5698;47.332;11.180;2023-02-13T11:10:13;0.83;;;0.80;;
11283;SDS011;5698;47.332;11.180;2023-02-13T11:12:41;0.57;;;0.57;;
11283;SDS011;5698;47.332;11.180;2023-02-13T11:15:18;0.70;;;0.70;;
11283;SDS011;5698;47.332;11.180;2023-02-13T11:17:47;0.90;;;0.67;;
11283;SDS011;5698;47.332;11.180;2023-02-13T11:20:27;0.80;;;0.77;;
11283;SDS011;5698;47.332;11.180;2023-02-13T11:23:10;1.07;;;0.97;;
11283;SDS011;5698;47.332;11.180;2023-02-13T11:25:56;0.60;;;0.50;;
11283;SDS011;5698;47.332;11.180;2023-02-13T11:28:26;0.77;;;0.60;;
11283;SDS011;5698;47.332;11.180;2023-02-13T11:31:01;0.70;;;0.60;;
11283;SDS011;5698;47.332;11.180;2023-02-13T11:33:39;0.63;;;0.60;;
11283;SDS011;5698;47.332;11.180;2023-02-13T11:36:07;0.60;;;0.60;;
11283;SDS011;5698;47.332;11.180;2023-02-13T11:38:40;0.60;;;0.50;;
11283;SDS011;5698;47.332;11.180;2023-02-13T11:41:08;0.50;;;0.50;;
11283;SDS011;5698;47.332;11.180;2023-02-13T11:43:39;1.30;;;0.70;;
11283;SDS011;5698;47.332;11.180;2023-02-13T11:46:13;1.20;;;1.10;;
11283;SDS011;5698;47.332;11.180;2023-02-13T11:48:54;2.87;;;1.53;;
11283;SDS011;5698;47.332;11.180;2023-02-13T11:51:36;3.80;;;1.60;;
11283;SDS011;5698;47.332;11.180;2023-02-13T11:54:11;2.00;;;1.80;;
11283;SDS011;5698;47.332;11.180;2023-02-13T11:56:51;2.63;;;1.53;;
11283;SDS011;5698;47.332;11.180;2023-02-13T11:59:21;5.43;;;1.37;;
11283;SDS011;5698;47.332;11.180;2023-02-13T12:02:00;3.63;;;1.30;;
11283;SDS011;5698;47.332;11.180;2023-02-13T12:04:29;0.80;;;0.70;;
11283;SDS011;5698;47.332;11.180;2023-02-13T12:06:57;0.80;;;0.80;;
11283;SDS011;5698;47.332;11.180;2023-02-13T12:09:27;2.40;;;1.20;;
11283;SDS011;5698;47.332;11.180;2023-02-13T12:11:56;1.47;;;1.00;;
11283;SDS011;5698;47.332;11.180;2023-02-13T12:14:28;0.60;;;0.60;;
11283;SDS011;5698;47.332;11.180;2023-02-13T12:16:59;1.73;;;0.83;;
11283;SDS011;5698;47.332;11.180;2023-02-13T12:19:32;0.87;;;0.80;;
11283;SDS011;5698;47.332;11.180;2023-02-13T12:22:15;1.47;;;1.00;;
11283;SDS011;5698;47.332;11.180;2023-02-13T12:25:06;0.83;;;0.83;;
11283;SDS011;5698;47.332;11.180;2023-02-13T12:27:55;0.73;;;0.70;;
11283;SDS011;5698;47.332;11.180;2023-02-13T12:30:39;0.70;;;0.70;;
11283;SDS011;5698;47.332;11.180;2023-02-13T12:33:36;0.70;;;0.60;;
11283;SDS011;5698;47.332;11.180;2023-02-13T12:36:21;1.03;;;0.40;;
11283;SDS011;5698;47.332;11.180;2023-02-13T12:38:56;0.30;;;0.30;;
11283;SDS011;5698;47.332;11.180;2023-02-13T12:41:34;0.50;;;0.40;;
11283;SDS011;5698;47.332;11.180;2023-02-13T12:47:04;0.40;;;0.40;;
11283;SDS011;5698;47.332;11.180;2023-02-13T12:53:13;0.50;;;0.40;;
11283;SDS011;5698;47.332;11.180;2023-02-13T12:56:07;0.70;;;0.30;;
11283;SDS011;5698;47.332;11.180;2023-02-13T12:59:01;0.30;;;0.30;;
11283;SDS011;5698;47.332;11.180;2023-02-13T13:01:43;0.40;;;0.40;;
11283;SDS011;5698;47.332;11.180;2023-02-13T13:04:40;0.53;;;0.47;;
11283;SDS011;5698;47.332;11.180;2023-02-13T13:07:23;0.27;;;0.27;;
11283;SDS011;5698;47.332;11.180;2023-02-13T13:10:14;0.40;;;0.40;;
11283;SDS011;5698;47.332;11.180;2023-02-13T13:12:51;0.30;;;0.30;;
11283;SDS011;5698;47.332;11.180;2023-02-13T13:15:33;0.43;;;0.30;;
11283;SDS011;5698;47.332;11.180;2023-02-13T13:18:13;0.40;;;0.40;;
11283;SDS011;5698;47.332;11.180;2023-02-13T13:20:57;1.53;;;0.40;;
11283;SDS011;5698;47.332;11.180;2023-02-13T13:23:33;0.20;;;0.20;;
11283;SDS011;5698;47.332;11.180;2023-02-13T13:26:10;0.87;;;0.53;;
11283;SDS011;5698;47.332;11.180;2023-02-13T13:28:43;0.57;;;0.50;;
11283;SDS011;5698;47.332;11.180;2023-02-13T13:31:15;1.33;;;0.80;;
11283;SDS011;5698;47.332;11.180;2023-02-13T13:33:43;0.90;;;0.67;;
11283;SDS011;5698;47.332;11.180;2023-02-13T13:36:13;0.90;;;0.70;;
11283;SDS011;5698;47.332;11.180;2023-02-13T13:38:51;0.57;;;0.57;;
11283;SDS011;5698;47.332;11.180;2023-02-13T13:41:25;1.17;;;1.07;;
11283;SDS011;5698;47.332;11.180;2023-02-13T13:44:02;0.70;;;0.70;;
11283;SDS011;5698;47.332;11.180;2023-02-13T13:46:46;0.77;;;0.63;;
11283;SDS011;5698;47.332;11.180;2023-02-13T13:49:25;0.70;;;0.60;;
11283;SDS011;5698;47.332;11.180;2023-02-13T13:54:48;0.50;;;0.50;;
11283;SDS011;5698;47.332;11.180;2023-02-13T13:57:18;0.80;;;0.53;;
11283;SDS011;5698;47.332;11.180;2023-02-13T14:02:50;0.40;;;0.40;;
11283;SDS011;5698;47.332;11.180;2023-02-13T14:05:55;2.13;;;0.40;;
11283;SDS011;5698;47.332;11.180;2023-02-13T14:11:25;0.50;;;0.50;;
11283;SDS011;5698;47.332;11.180;2023-02-13T14:13:58;0.60;;;0.50;;
11283;SDS011;5698;47.332;11.180;2023-02-13T14:16:39;0.60;;;0.60;;
11283;SDS011;5698;47.332;11.180;2023-02-13T14:21:54;0.70;;;0.60;;
11283;SDS011;5698;47.332;11.180;2023-02-13T14:24:53;1.47;;;0.60;;
11283;SDS011;5698;47.332;11.180;2023-02-13T14:27:22;1.27;;;0.70;;
11283;SDS011;5698;47.332;11.180;2023-02-13T14:29:52;0.73;;;0.73;;
11283;SDS011;5698;47.332;11.180;2023-02-13T14:32:22;1.20;;;1.00;;
11283;SDS011;5698;47.332;11.180;2023-02-13T14:34:56;1.43;;;1.00;;
11283;SDS011;5698;47.332;11.180;2023-02-13T14:37:30;0.60;;;0.60;;
11283;SDS011;5698;47.332;11.180;2023-02-13T14:43:25;1.87;;;0.90;;
11283;SDS011;5698;47.332;11.180;2023-02-13T14:46:02;1.20;;;0.90;;
11283;SDS011;5698;47.332;11.180;2023-02-13T14:48:35;1.77;;;1.23;;
11283;SDS011;5698;47.332;11.180;2023-02-13T14:51:13;1.20;;;1.10;;
11283;SDS011;5698;47.332;11.180;2023-02-13T14:53:53;1.63;;;0.97;;
11283;SDS011;5698;47.332;11.180;2023-02-13T14:56:23;0.77;;;0.77;;
11283;SDS011;5698;47.332;11.180;2023-02-13T14:58:51;0.90;;;0.90;;
11283;SDS011;5698;47.332;11.180;2023-02-13T15:01:24;0.70;;;0.60;;
11283;SDS011;5698;47.332;11.180;2023-02-13T15:03:57;0.70;;;0.70;;
11283;SDS011;5698;47.332;11.180;2023-02-13T15:06:32;3.00;;;0.80;;
11283;SDS011;5698;47.332;11.180;2023-02-13T15:09:05;0.80;;;0.80;;
11283;SDS011;5698;47.332;11.180;2023-02-13T15:11:44;0.80;;;0.80;;
11283;SDS011;5698;47.332;11.180;2023-02-13T15:14:19;0.90;;;0.80;;
11283;SDS011;5698;47.332;11.180;2023-02-13T15:16:49;1.43;;;1.20;;
11283;SDS011;5698;47.332;11.180;2023-02-13T15:19:20;2.53;;;1.33;;
11283;SDS011;5698;47.332;11.180;2023-02-13T15:21:51;2.90;;;1.37;;
11283;SDS011;5698;47.332;11.180;2023-02-13T15:24:20;2.40;;;1.47;;
11283;SDS011;5698;47.332;11.180;2023-02-13T15:26:49;1.73;;;1.10;;
11283;SDS011;5698;47.332;11.180;2023-02-13T15:29:19;1.10;;;0.80;;
11283;SDS011;5698;47.332;11.180;2023-02-13T15:31:46;2.17;;;1.00;;
11283;SDS011;5698;47.332;11.180;2023-02-13T15:34:20;0.83;;;0.80;;
11283;SDS011;5698;47.332;11.180;2023-02-13T15:36:51;1.10;;;0.97;;
11283;SDS011;5698;47.332;11.180;2023-02-13T15:39:19;1.13;;;0.90;;
11283;SDS011;5698;47.332;11.180;2023-02-13T15:41:50;0.80;;;0.80;;
11283;SDS011;5698;47.332;11.180;2023-02-13T15:44:19;0.70;;;0.70;;
11283;SDS011;5698;47.332;11.180;2023-02-13T15:46:50;0.50;;;0.50;;